createdAt,value
2023-03-28T00:01:08.235Z,99633.16
2023-03-28T00:03:39.780Z,99631.88
2023-03-28T00:06:16.511Z,99615.66
2023-03-28T00:08:46.156Z,99624.91
2023-03-28T00:11:20.444Z,99621.00
2023-03-28T00:14:00.975Z,99620.78
2023-03-28T00:16:47.470Z,99611.97
2023-03-28T00:19:18.857Z,99601.13
2023-03-28T00:21:49.207Z,99608.56
2023-03-28T00:24:21.512Z,99603.47
2023-03-28T00:26:54.493Z,99596.69
2023-03-28T00:29:23.279Z,99593.59
2023-03-28T00:31:52.211Z,99596.41
2023-03-28T00:34:19.487Z,99604.50
2023-03-28T00:36:47.188Z,99606.31
2023-03-28T00:39:14.498Z,99591.56
2023-03-28T00:41:44.489Z,99591.81
2023-03-28T00:44:41.846Z,99592.00
2023-03-28T00:47:28.091Z,99588.81
2023-03-28T00:50:00.729Z,99589.81
2023-03-28T00:52:31.044Z,99578.81
2023-03-28T00:54:59.671Z,99596.00
2023-03-28T00:57:28.751Z,99584.44
2023-03-28T00:59:56.229Z,99580.47
2023-03-28T01:02:24.181Z,99602.13
2023-03-28T01:04:59.528Z,99603.44
2023-03-28T01:07:33.302Z,99600.38
2023-03-28T01:10:04.314Z,99606.44
2023-03-28T01:12:33.350Z,99587.44
2023-03-28T01:15:03.197Z,99602.63
2023-03-28T01:17:41.524Z,99596.22
2023-03-28T01:21:07.729Z,99598.06
2023-03-28T01:23:53.446Z,99609.63
2023-03-28T01:26:45.881Z,99605.44
2023-03-28T01:29:19.784Z,99614.25
2023-03-28T01:32:22.493Z,99615.66
2023-03-28T01:35:03.577Z,99611.22
2023-03-28T01:37:45.949Z,99607.75
2023-03-28T01:40:35.777Z,99611.34
2023-03-28T01:43:23.595Z,99612.84
2023-03-28T01:46:18.827Z,99611.78
2023-03-28T01:48:54.144Z,99620.16
2023-03-28T01:51:25.037Z,99609.47
2023-03-28T01:54:06.624Z,99614.78
2023-03-28T01:56:49.282Z,99630.22
2023-03-28T01:59:30.604Z,99629.38
2023-03-28T02:02:33.105Z,99629.41
2023-03-28T02:05:15.550Z,99631.97
2023-03-28T02:07:46.423Z,99632.44
2023-03-28T02:10:17.348Z,99632.69
2023-03-28T02:13:23.002Z,99633.22
2023-03-28T02:15:59.099Z,99639.72
2023-03-28T02:18:55.760Z,99639.16
2023-03-28T02:22:01.061Z,99636.50
2023-03-28T02:24:31.724Z,99642.94
2023-03-28T02:27:28.449Z,99639.06
2023-03-28T02:30:09.971Z,99652.88
2023-03-28T02:32:38.810Z,99646.63
2023-03-28T02:35:07.573Z,99660.31
2023-03-28T02:37:51.206Z,99668.63
2023-03-28T02:40:46.645Z,99664.38
2023-03-28T02:43:35.595Z,99672.34
2023-03-28T02:46:06.233Z,99683.25
2023-03-28T02:48:42.656Z,99667.41
2023-03-28T02:51:49.023Z,99680.03
2023-03-28T02:54:54.828Z,99679.94
2023-03-28T02:57:42.964Z,99680.88
2023-03-28T03:00:16.014Z,99679.53
2023-03-28T03:02:45.139Z,99689.94
2023-03-28T03:05:13.975Z,99693.69
2023-03-28T03:07:42.451Z,99689.47
2023-03-28T03:10:12.044Z,99696.03
2023-03-28T03:12:39.992Z,99693.09
2023-03-28T03:15:08.002Z,99691.66
2023-03-28T03:17:55.900Z,99712.75
2023-03-28T03:20:34.801Z,99705.03
2023-03-28T03:23:03.951Z,99706.69
2023-03-28T03:25:34.631Z,99706.03
2023-03-28T03:28:28.344Z,99704.94
2023-03-28T03:30:55.938Z,99720.00
2023-03-28T03:33:41.704Z,99723.25
2023-03-28T03:36:12.846Z,99730.47
2023-03-28T03:38:42.022Z,99735.00
2023-03-28T03:41:16.556Z,99731.63
2023-03-28T03:43:45.290Z,99739.59
2023-03-28T03:46:14.513Z,99733.72
2023-03-28T03:48:49.472Z,99737.72
2023-03-28T03:51:17.940Z,99735.66
2023-03-28T03:53:46.818Z,99726.00
2023-03-28T03:56:17.778Z,99742.28
2023-03-28T03:58:57.572Z,99744.13
2023-03-28T04:01:30.284Z,99733.91
2023-03-28T04:04:07.883Z,99733.94
2023-03-28T04:06:58.161Z,99744.34
2023-03-28T04:09:27.365Z,99736.72
2023-03-28T04:12:00.991Z,99745.53
2023-03-28T04:14:28.750Z,99754.22
2023-03-28T04:17:16.312Z,99739.28
2023-03-28T04:19:46.698Z,99758.06
2023-03-28T04:22:14.370Z,99762.66
2023-03-28T04:24:50.078Z,99761.88
2023-03-28T04:27:31.530Z,99764.00
2023-03-28T04:30:00.733Z,99771.41
2023-03-28T04:32:54.410Z,99768.00
2023-03-28T04:35:29.811Z,99781.88
2023-03-28T04:38:00.144Z,99777.13
2023-03-28T04:40:28.290Z,99782.41
2023-03-28T04:43:18.724Z,99789.13
2023-03-28T04:45:56.490Z,99796.53
2023-03-28T04:48:25.828Z,99785.44
2023-03-28T04:50:54.297Z,99796.84
2023-03-28T04:53:22.538Z,99802.06
2023-03-28T04:56:28.128Z,99806.03
2023-03-28T04:58:56.495Z,99805.69
2023-03-28T05:01:27.819Z,99805.25
2023-03-28T05:04:13.648Z,99803.16
2023-03-28T05:06:41.334Z,99820.72
2023-03-28T05:09:14.440Z,99815.28
2023-03-28T05:11:42.727Z,99817.31
2023-03-28T05:14:10.882Z,99813.06
2023-03-28T05:16:44.642Z,99825.97
2023-03-28T05:19:44.097Z,99830.94
2023-03-28T05:22:20.795Z,99827.91
2023-03-28T05:24:49.633Z,99833.94
2023-03-28T05:27:19.219Z,99835.66
2023-03-28T05:29:47.481Z,99842.97
2023-03-28T05:32:15.143Z,99832.25
2023-03-28T05:34:42.555Z,99854.44
2023-03-28T05:37:10.562Z,99845.94
2023-03-28T05:39:48.731Z,99848.69
2023-03-28T05:42:17.160Z,99854.81
2023-03-28T05:44:44.488Z,99857.72
2023-03-28T05:47:21.058Z,99850.94
2023-03-28T05:49:48.491Z,99859.09
2023-03-28T05:52:16.291Z,99858.72
2023-03-28T05:54:52.124Z,99868.03
2023-03-28T05:57:22.731Z,99861.94
2023-03-28T05:59:50.096Z,99876.44
2023-03-28T06:02:23.659Z,99882.03
2023-03-28T06:04:57.965Z,99882.53
2023-03-28T06:07:39.282Z,99888.34
2023-03-28T06:10:12.447Z,99894.66
2023-03-28T06:12:41.304Z,99897.13
2023-03-28T06:15:10.043Z,99901.94
2023-03-28T06:17:42.772Z,99890.91
2023-03-28T06:20:10.506Z,99901.81
2023-03-28T06:22:38.494Z,99907.00
2023-03-28T06:25:11.224Z,99911.50
2023-03-28T06:27:38.847Z,99916.84
2023-03-28T06:30:07.225Z,99910.28
2023-03-28T06:32:43.055Z,99926.84
2023-03-28T06:35:10.818Z,99925.97
2023-03-28T06:37:38.367Z,99926.88
2023-03-28T06:40:09.138Z,99912.06
2023-03-28T06:42:36.847Z,99933.13
2023-03-28T06:45:33.519Z,99936.78
2023-03-28T06:48:04.845Z,99945.00
2023-03-28T06:50:59.185Z,99951.06
2023-03-28T06:53:27.869Z,99960.03
2023-03-28T06:55:55.726Z,99953.94
2023-03-28T06:58:24.056Z,99962.25
2023-03-28T07:01:02.458Z,99962.59
2023-03-28T07:03:42.360Z,99958.91
2023-03-28T07:06:10.748Z,99969.06
2023-03-28T07:08:38.869Z,99973.75
2023-03-28T07:11:06.864Z,99977.13
2023-03-28T07:13:34.660Z,99980.00
2023-03-28T07:16:12.498Z,99968.66
2023-03-28T07:18:41.752Z,99967.84
2023-03-28T07:21:17.015Z,99968.41
2023-03-28T07:23:44.930Z,99971.91
2023-03-28T07:26:15.694Z,99979.59
2023-03-28T07:28:43.424Z,99991.88
2023-03-28T07:31:11.325Z,100001.03
2023-03-28T07:33:39.374Z,100004.00
2023-03-28T07:36:15.157Z,100004.53
2023-03-28T07:38:47.262Z,100015.94
2023-03-28T07:41:16.586Z,100009.00
2023-03-28T07:43:44.818Z,99991.63
2023-03-28T07:46:15.111Z,100017.69
2023-03-28T07:48:44.013Z,100019.97
2023-03-28T07:51:11.600Z,100017.44
2023-03-28T07:53:39.826Z,100028.31
2023-03-28T07:56:12.303Z,100021.84
2023-03-28T07:58:58.948Z,100028.91
2023-03-28T08:01:26.508Z,100037.81
2023-03-28T08:04:01.422Z,100037.53
2023-03-28T08:06:40.708Z,100049.47
2023-03-28T08:09:10.647Z,100065.94
2023-03-28T08:11:42.030Z,100059.16
2023-03-28T08:14:15.546Z,100064.91
2023-03-28T08:16:44.401Z,100068.34
2023-03-28T08:19:12.593Z,100068.41
2023-03-28T08:22:16.757Z,100080.94
2023-03-28T08:24:53.756Z,100070.78
2023-03-28T08:27:23.472Z,100076.47
2023-03-28T08:29:54.707Z,100083.41
2023-03-28T08:32:22.090Z,100072.78
2023-03-28T08:34:49.709Z,100076.31
2023-03-28T08:37:22.916Z,100090.19
2023-03-28T08:39:50.937Z,100075.41
2023-03-28T08:42:28.638Z,100087.34
2023-03-28T08:45:37.005Z,100083.41
2023-03-28T08:48:07.252Z,100103.09
2023-03-28T08:50:41.683Z,100090.97
2023-03-28T08:53:24.716Z,100086.09
2023-03-28T08:55:53.774Z,100095.88
2023-03-28T08:58:23.564Z,100095.91
2023-03-28T09:00:52.361Z,100100.94
2023-03-28T09:03:22.484Z,100101.03
2023-03-28T09:06:18.082Z,100110.13
2023-03-28T09:09:13.184Z,100125.41
2023-03-28T09:12:16.900Z,100131.13
2023-03-28T09:14:51.978Z,100130.78
2023-03-28T09:17:54.098Z,100141.03
2023-03-28T09:21:12.604Z,100139.13
2023-03-28T09:23:58.129Z,100146.66
2023-03-28T09:27:20.677Z,100147.09
2023-03-28T09:29:50.530Z,100147.50
2023-03-28T09:32:26.506Z,100154.75
2023-03-28T09:34:54.163Z,100142.78
2023-03-28T09:37:38.191Z,100147.41
2023-03-28T09:40:17.842Z,100140.50
2023-03-28T09:43:14.311Z,100139.59
2023-03-28T09:46:02.785Z,100145.91
2023-03-28T09:48:50.699Z,100129.03
2023-03-28T09:51:21.451Z,100160.31
2023-03-28T09:53:48.811Z,100150.63
2023-03-28T09:56:28.011Z,100162.31
2023-03-28T09:59:03.529Z,100168.97
2023-03-28T10:01:47.016Z,100164.44
2023-03-28T10:04:19.759Z,100176.47
2023-03-28T10:07:13.237Z,100181.72
2023-03-28T10:09:55.221Z,100171.94
2023-03-28T10:12:32.428Z,100192.13
2023-03-28T10:15:00.665Z,100190.31
2023-03-28T10:17:46.780Z,100202.59
2023-03-28T10:20:21.689Z,100216.72
2023-03-28T10:22:56.123Z,100214.63
2023-03-28T10:25:45.462Z,100200.13
2023-03-28T10:28:33.973Z,100221.72
2023-03-28T10:31:03.365Z,100223.66
2023-03-28T10:33:46.395Z,100230.72
2023-03-28T10:36:34.424Z,100228.81
2023-03-28T10:39:27.645Z,100230.25
2023-03-28T10:42:13.658Z,100223.16
2023-03-28T10:45:04.828Z,100231.66
2023-03-28T10:47:36.297Z,100237.28
2023-03-28T10:50:19.907Z,100245.69
2023-03-28T10:53:20.135Z,100251.00
2023-03-28T10:56:06.817Z,100225.06
2023-03-28T10:59:00.346Z,100250.81
2023-03-28T11:02:13.959Z,100254.22
2023-03-28T11:05:28.785Z,100258.59
2023-03-28T11:08:19.415Z,100252.88
2023-03-28T11:11:01.011Z,100264.03
2023-03-28T11:13:55.741Z,100262.69
2023-03-28T11:16:51.751Z,100268.69
2023-03-28T11:20:22.839Z,100267.31
2023-03-28T11:23:31.451Z,100273.91
2023-03-28T11:27:08.580Z,100270.78
2023-03-28T11:30:00.967Z,100286.94
2023-03-28T11:32:39.864Z,100298.91
2023-03-28T11:35:28.630Z,100305.44
2023-03-28T11:38:11.605Z,100290.78
2023-03-28T11:40:51.620Z,100305.06
2023-03-28T11:43:50.064Z,100308.38
2023-03-28T11:46:39.154Z,100317.13
2023-03-28T11:49:26.139Z,100319.97
2023-03-28T11:52:07.687Z,100308.53
2023-03-28T11:54:42.894Z,100299.13
2023-03-28T11:57:10.307Z,100300.06
2023-03-28T12:00:26.728Z,100305.09
2023-03-28T12:03:16.392Z,100309.34
2023-03-28T12:06:05.005Z,100311.50
2023-03-28T12:08:47.712Z,100313.84
2023-03-28T12:11:23.928Z,100324.16
2023-03-28T12:14:28.568Z,100355.97
2023-03-28T12:17:11.120Z,100342.47
2023-03-28T12:19:41.321Z,100355.97
2023-03-28T12:22:41.126Z,100349.00
2023-03-28T12:25:10.686Z,100363.72
2023-03-28T12:27:42.960Z,100366.50
2023-03-28T12:30:58.915Z,100357.00
2023-03-28T12:33:48.680Z,100377.31
2023-03-28T12:37:04.594Z,100388.09
2023-03-28T12:39:35.556Z,100391.44
2023-03-28T12:42:13.004Z,100391.28
2023-03-28T12:45:03.786Z,100381.72
2023-03-28T12:47:47.262Z,100397.28
2023-03-28T12:50:31.824Z,100388.88
2023-03-28T12:53:00.716Z,100394.56
2023-03-28T12:55:35.690Z,100397.19
2023-03-28T12:58:36.406Z,100391.38
2023-03-28T13:01:49.138Z,100399.50
2023-03-28T13:04:36.014Z,100398.44
2023-03-28T13:07:18.233Z,100399.97
2023-03-28T13:09:49.931Z,100397.94
2023-03-28T13:12:24.461Z,100391.38
2023-03-28T13:15:21.403Z,100398.94
2023-03-28T13:18:17.595Z,100398.69
2023-03-28T13:20:47.130Z,100400.56
2023-03-28T13:23:17.851Z,100414.75
2023-03-28T13:25:55.870Z,100407.22
2023-03-28T13:28:53.050Z,100399.25
2023-03-28T13:31:25.043Z,100410.44
2023-03-28T13:34:01.960Z,100416.25
2023-03-28T13:36:32.933Z,100426.09
2023-03-28T13:39:25.999Z,100422.56
2023-03-28T13:41:56.061Z,100427.31
2023-03-28T13:44:40.093Z,100440.72
2023-03-28T13:47:14.232Z,100414.94
2023-03-28T13:49:48.049Z,100427.06
2023-03-28T13:52:20.652Z,100426.41
2023-03-28T13:54:54.359Z,100436.69
2023-03-28T13:57:26.442Z,100431.66
2023-03-28T14:00:07.983Z,100424.09
2023-03-28T14:02:50.187Z,100425.22
2023-03-28T14:05:29.756Z,100409.25
2023-03-28T14:08:15.809Z,100436.06
2023-03-28T14:10:45.925Z,100418.09
2023-03-28T14:13:22.741Z,100430.06
2023-03-28T14:15:52.329Z,100435.72
2023-03-28T14:18:46.207Z,100438.03
2023-03-28T14:21:14.664Z,100432.88
2023-03-28T14:24:25.085Z,100449.09
2023-03-28T14:27:06.539Z,100448.72
2023-03-28T14:29:33.716Z,100452.25
2023-03-28T14:32:02.024Z,100459.47
2023-03-28T14:34:38.886Z,100467.16
2023-03-28T14:37:15.812Z,100472.38
2023-03-28T14:39:43.712Z,100460.06
2023-03-28T14:42:20.223Z,100473.34
2023-03-28T14:44:52.294Z,100476.72
2023-03-28T14:47:30.101Z,100469.25
2023-03-28T14:49:58.292Z,100476.66
2023-03-28T14:52:30.858Z,100472.94
2023-03-28T14:54:59.053Z,100479.81
2023-03-28T14:57:27.015Z,100480.28
2023-03-28T14:59:57.065Z,100486.81
2023-03-28T15:02:35.917Z,100475.88
2023-03-28T15:05:08.100Z,100473.13
2023-03-28T15:07:37.366Z,100482.94
2023-03-28T15:10:21.059Z,100496.56
2023-03-28T15:13:03.915Z,100493.91
2023-03-28T15:15:42.192Z,100490.09
2023-03-28T15:18:19.445Z,100483.53
2023-03-28T15:20:52.111Z,100500.63
2023-03-28T15:23:29.219Z,100491.69
2023-03-28T15:26:01.252Z,100497.69
2023-03-28T15:28:30.790Z,100503.34
2023-03-28T15:31:00.963Z,100492.06
2023-03-28T15:33:33.841Z,100496.22
2023-03-28T15:36:13.135Z,100494.72
2023-03-28T15:38:41.354Z,100505.16
2023-03-28T15:41:24.396Z,100493.53
2023-03-28T15:43:54.665Z,100505.41
2023-03-28T15:46:29.255Z,100489.34
2023-03-28T15:48:59.494Z,100503.59
2023-03-28T15:51:28.299Z,100502.31
2023-03-28T15:53:58.883Z,100500.56
2023-03-28T15:56:29.447Z,100514.38
2023-03-28T15:59:02.873Z,100508.00
2023-03-28T16:01:32.550Z,100515.25
2023-03-28T16:04:20.721Z,100523.50
2023-03-28T16:06:48.823Z,100518.88
2023-03-28T16:09:21.637Z,100525.97
2023-03-28T16:12:03.628Z,100525.97
2023-03-28T16:14:52.973Z,100522.38
2023-03-28T16:17:30.601Z,100534.03
2023-03-28T16:20:22.131Z,100528.44
2023-03-28T16:22:50.799Z,100539.06
2023-03-28T16:25:18.385Z,100551.22
2023-03-28T16:27:45.920Z,100540.88
2023-03-28T16:30:21.639Z,100541.34
2023-03-28T16:32:48.956Z,100544.06
2023-03-28T16:35:16.613Z,100556.63
2023-03-28T16:37:43.859Z,100550.28
2023-03-28T16:40:11.787Z,100553.56
2023-03-28T16:42:39.108Z,100543.13
2023-03-28T16:45:11.423Z,100539.84
2023-03-28T16:47:39.033Z,100549.19
2023-03-28T16:50:08.839Z,100559.66
2023-03-28T16:52:40.292Z,100565.72
2023-03-28T16:55:14.728Z,100561.75
2023-03-28T16:57:43.558Z,100551.72
2023-03-28T17:00:18.182Z,100560.28
2023-03-28T17:02:47.603Z,100563.47
2023-03-28T17:05:16.809Z,100572.75
2023-03-28T17:07:44.436Z,100565.28
2023-03-28T17:10:12.578Z,100566.97
2023-03-28T17:12:40.005Z,100572.91
2023-03-28T17:15:09.603Z,100570.41
2023-03-28T17:17:37.011Z,100569.31
2023-03-28T17:20:05.286Z,100570.69
2023-03-28T17:22:32.655Z,100578.38
2023-03-28T17:25:02.041Z,100576.56
2023-03-28T17:27:29.660Z,100575.09
2023-03-28T17:29:57.542Z,100578.03
2023-03-28T17:32:25.035Z,100575.47
2023-03-28T17:34:52.666Z,100582.38
2023-03-28T17:37:22.449Z,100584.25
2023-03-28T17:39:51.092Z,100579.09
2023-03-28T17:42:18.363Z,100577.56
2023-03-28T17:44:45.986Z,100580.75
2023-03-28T17:47:13.441Z,100585.56
2023-03-28T17:49:41.133Z,100569.13
2023-03-28T17:52:10.394Z,100579.88
2023-03-28T17:54:38.042Z,100584.22
2023-03-28T17:57:06.905Z,100579.75
2023-03-28T17:59:34.494Z,100576.16
2023-03-28T18:02:03.001Z,100578.16
2023-03-28T18:04:30.851Z,100563.44
2023-03-28T18:07:16.487Z,100583.75
2023-03-28T18:09:45.934Z,100573.09
2023-03-28T18:12:13.724Z,100582.47
2023-03-28T18:14:41.647Z,100583.56
2023-03-28T18:17:09.574Z,100583.03
2023-03-28T18:19:37.216Z,100574.78
2023-03-28T18:22:04.443Z,100578.59
2023-03-28T18:24:31.986Z,100588.19
2023-03-28T18:27:00.118Z,100589.13
2023-03-28T18:29:27.703Z,100591.78
2023-03-28T18:31:55.068Z,100588.13
2023-03-28T18:34:22.770Z,100598.72
2023-03-28T18:36:51.387Z,100591.97
2023-03-28T18:39:19.063Z,100599.50
2023-03-28T18:41:46.294Z,100602.19
2023-03-28T18:44:13.867Z,100603.22
2023-03-28T18:46:41.153Z,100604.50
2023-03-28T18:49:09.062Z,100602.72
2023-03-28T18:51:36.719Z,100599.91
2023-03-28T18:54:04.401Z,100601.66
2023-03-28T18:56:32.937Z,100608.63
2023-03-28T18:59:02.337Z,100593.63
2023-03-28T19:01:29.986Z,100610.06
2023-03-28T19:03:57.636Z,100606.94
2023-03-28T19:06:24.996Z,100610.06
2023-03-28T19:08:52.784Z,100604.44
2023-03-28T19:11:20.109Z,100594.75
2023-03-28T19:13:48.068Z,100614.88
2023-03-28T19:16:17.122Z,100605.22
2023-03-28T19:18:46.873Z,100604.38
2023-03-28T19:21:15.244Z,100604.91
2023-03-28T19:23:43.188Z,100609.63
2023-03-28T19:26:13.169Z,100604.31
2023-03-28T19:28:41.919Z,100605.09
2023-03-28T19:31:11.473Z,100612.63
2023-03-28T19:33:42.585Z,100606.19
2023-03-28T19:36:11.593Z,100597.88
2023-03-28T19:38:40.334Z,100609.19
2023-03-28T19:41:15.813Z,100602.34
2023-03-28T19:43:44.267Z,100619.03
2023-03-28T19:46:26.320Z,100597.66
2023-03-28T19:49:00.972Z,100614.13
2023-03-28T19:51:28.729Z,100596.56
2023-03-28T19:53:56.322Z,100602.34
2023-03-28T19:56:23.605Z,100595.63
2023-03-28T19:58:52.193Z,100611.28
2023-03-28T20:01:20.578Z,100609.00
2023-03-28T20:03:52.599Z,100615.06
2023-03-28T20:06:21.586Z,100599.00
2023-03-28T20:08:49.620Z,100609.41
2023-03-28T20:11:17.301Z,100611.78
2023-03-28T20:13:45.055Z,100605.28
2023-03-28T20:16:13.608Z,100612.69
2023-03-28T20:18:41.938Z,100605.09
2023-03-28T20:21:11.941Z,100597.91
2023-03-28T20:23:40.107Z,100603.41
2023-03-28T20:26:19.237Z,100608.81
2023-03-28T20:28:49.997Z,100600.81
2023-03-28T20:31:18.619Z,100613.97
2023-03-28T20:33:46.357Z,100592.63
2023-03-28T20:36:13.666Z,100603.84
2023-03-28T20:38:41.256Z,100611.50
2023-03-28T20:41:16.168Z,100600.94
2023-03-28T20:43:47.312Z,100608.00
2023-03-28T20:46:19.669Z,100600.78
2023-03-28T20:48:53.033Z,100599.56
2023-03-28T20:51:22.558Z,100604.25
2023-03-28T20:53:54.488Z,100607.50
2023-03-28T20:56:23.597Z,100597.00
2023-03-28T20:58:53.358Z,100595.19
2023-03-28T21:01:26.235Z,100591.94
2023-03-28T21:03:57.998Z,100589.25
2023-03-28T21:06:29.443Z,100603.13
2023-03-28T21:09:01.917Z,100594.59
2023-03-28T21:11:31.845Z,100596.69
2023-03-28T21:14:00.443Z,100599.34
2023-03-28T21:16:29.184Z,100605.75
2023-03-28T21:18:56.944Z,100591.81
2023-03-28T21:21:24.337Z,100604.97
2023-03-28T21:23:53.307Z,100608.34
2023-03-28T21:26:22.925Z,100603.97
2023-03-28T21:28:54.780Z,100595.97
2023-03-28T21:31:28.185Z,100608.84
2023-03-28T21:33:58.787Z,100609.84
2023-03-28T21:36:27.257Z,100613.56
2023-03-28T21:38:56.306Z,100608.53
2023-03-28T21:41:24.019Z,100609.44
2023-03-28T21:43:53.784Z,100606.97
2023-03-28T21:46:21.855Z,100601.59
2023-03-28T21:48:50.127Z,100598.13
2023-03-28T21:51:18.317Z,100584.50
2023-03-28T21:53:46.334Z,100599.47
2023-03-28T21:56:14.854Z,100593.81
2023-03-28T21:58:42.540Z,100605.41
2023-03-28T22:01:13.789Z,100591.69
2023-03-28T22:03:41.844Z,100591.06
2023-03-28T22:06:09.808Z,100602.84
2023-03-28T22:08:37.489Z,100597.13
2023-03-28T22:11:14.953Z,100596.25
2023-03-28T22:13:45.109Z,100594.94
2023-03-28T22:16:13.035Z,100604.63
2023-03-28T22:18:41.738Z,100596.28
2023-03-28T22:21:14.071Z,100581.44
2023-03-28T22:23:43.505Z,100591.06
2023-03-28T22:26:12.640Z,100584.16
2023-03-28T22:28:40.241Z,100604.38
2023-03-28T22:31:07.655Z,100588.09
2023-03-28T22:33:35.305Z,100609.13
2023-03-28T22:36:03.553Z,100606.75
2023-03-28T22:38:31.208Z,100594.72
2023-03-28T22:40:58.578Z,100600.16
2023-03-28T22:43:26.750Z,100613.69
2023-03-28T22:45:54.006Z,100601.53
2023-03-28T22:48:22.045Z,100614.88
2023-03-28T22:50:50.356Z,100606.34
2023-03-28T22:53:18.290Z,100599.34
2023-03-28T22:55:45.556Z,100616.78
2023-03-28T22:58:13.093Z,100604.91
2023-03-28T23:00:40.539Z,100604.50
2023-03-28T23:03:08.972Z,100616.88
2023-03-28T23:05:37.293Z,100621.09
2023-03-28T23:08:05.617Z,100623.53
2023-03-28T23:10:34.089Z,100615.66
2023-03-28T23:13:01.620Z,100623.25
2023-03-28T23:15:28.928Z,100611.22
2023-03-28T23:17:56.622Z,100618.25
2023-03-28T23:20:24.735Z,100626.19
2023-03-28T23:22:53.680Z,100610.78
2023-03-28T23:25:22.238Z,100615.22
2023-03-28T23:27:49.918Z,100622.53
2023-03-28T23:30:17.261Z,100625.69
2023-03-28T23:32:44.913Z,100630.47
2023-03-28T23:35:12.344Z,100626.78
2023-03-28T23:37:40.343Z,100630.34
2023-03-28T23:40:15.095Z,100623.59
2023-03-28T23:42:44.757Z,100621.53
2023-03-28T23:45:14.978Z,100617.38
2023-03-28T23:47:44.290Z,100625.25
2023-03-28T23:50:12.306Z,100619.06
2023-03-28T23:52:40.161Z,100613.16
2023-03-28T23:55:08.865Z,100613.03
2023-03-28T23:57:37.319Z,100604.91
